sensor_id;sensor_type;location;lat;lon;timestamp;P1;durP1;ratioP1;P2;durP2;ratioP2
17193;SDS011;8713;48.388;10.928;2023-10-09T00:01:06;8.60;;;4.05;;
17193;SDS011;8713;48.388;10.928;2023-10-09T00:02:25;10.80;;;4.32;;
17193;SDS011;8713;48.388;10.928;2023-10-09T00:03:35;11.00;;;4.50;;
17193;SDS011;8713;48.388;10.928;2023-10-09T00:04:46;12.88;;;4.60;;
17193;SDS011;8713;48.388;10.928;2023-10-09T00:05:56;10.93;;;4.28;;
17193;SDS011;8713;48.388;10.928;2023-10-09T00:07:06;9.38;;;4.03;;
17193;SDS011;8713;48.388;10.928;2023-10-09T00:08:17;10.57;;;4.28;;
17193;SDS011;8713;48.388;10.928;2023-10-09T00:09:42;7.93;;;3.55;;
17193;SDS011;8713;48.388;10.928;2023-10-09T00:10:55;9.77;;;4.20;;
17193;SDS011;8713;48.388;10.928;2023-10-09T00:12:08;10.00;;;4.35;;
17193;SDS011;8713;48.388;10.928;2023-10-09T00:13:26;9.70;;;4.00;;
17193;SDS011;8713;48.388;10.928;2023-10-09T00:14:39;11.77;;;4.30;;
17193;SDS011;8713;48.388;10.928;2023-10-09T00:15:49;12.75;;;4.50;;
17193;SDS011;8713;48.388;10.928;2023-10-09T00:17:02;10.90;;;4.18;;
17193;SDS011;8713;48.388;10.928;2023-10-09T00:18:32;10.95;;;3.90;;
17193;SDS011;8713;48.388;10.928;2023-10-09T00:19:44;11.30;;;4.13;;
17193;SDS011;8713;48.388;10.928;2023-10-09T00:20:57;11.98;;;4.38;;
17193;SDS011;8713;48.388;10.928;2023-10-09T00:22:10;8.52;;;3.65;;
17193;SDS011;8713;48.388;10.928;2023-10-09T00:23:28;9.23;;;4.13;;
17193;SDS011;8713;48.388;10.928;2023-10-09T00:24:40;11.02;;;3.95;;
17193;SDS011;8713;48.388;10.928;2023-10-09T00:25:55;11.00;;;4.28;;
17193;SDS011;8713;48.388;10.928;2023-10-09T00:27:29;12.07;;;3.83;;
17193;SDS011;8713;48.388;10.928;2023-10-09T00:28:40;11.85;;;4.28;;
17193;SDS011;8713;48.388;10.928;2023-10-09T00:29:53;12.32;;;3.80;;
17193;SDS011;8713;48.388;10.928;2023-10-09T00:31:04;11.93;;;3.97;;
17193;SDS011;8713;48.388;10.928;2023-10-09T00:32:16;12.25;;;4.35;;
17193;SDS011;8713;48.388;10.928;2023-10-09T00:33:28;7.28;;;3.72;;
17193;SDS011;8713;48.388;10.928;2023-10-09T00:34:41;10.48;;;3.80;;
17193;SDS011;8713;48.388;10.928;2023-10-09T00:35:51;11.13;;;4.25;;
17193;SDS011;8713;48.388;10.928;2023-10-09T00:37:04;10.65;;;3.80;;
17193;SDS011;8713;48.388;10.928;2023-10-09T00:38:40;9.93;;;3.45;;
17193;SDS011;8713;48.388;10.928;2023-10-09T00:39:55;9.45;;;3.70;;
17193;SDS011;8713;48.388;10.928;2023-10-09T00:41:06;10.82;;;3.85;;
17193;SDS011;8713;48.388;10.928;2023-10-09T00:42:15;10.65;;;4.00;;
17193;SDS011;8713;48.388;10.928;2023-10-09T00:43:32;10.27;;;3.33;;
17193;SDS011;8713;48.388;10.928;2023-10-09T00:44:46;10.82;;;3.60;;
17193;SDS011;8713;48.388;10.928;2023-10-09T00:45:59;8.45;;;3.60;;
17193;SDS011;8713;48.388;10.928;2023-10-09T00:47:38;13.27;;;3.63;;
17193;SDS011;8713;48.388;10.928;2023-10-09T00:48:54;10.27;;;3.83;;
17193;SDS011;8713;48.388;10.928;2023-10-09T00:50:10;10.55;;;3.20;;
17193;SDS011;8713;48.388;10.928;2023-10-09T00:51:29;12.15;;;3.65;;
17193;SDS011;8713;48.388;10.928;2023-10-09T00:52:50;12.48;;;3.67;;
17193;SDS011;8713;48.388;10.928;2023-10-09T00:54:13;8.75;;;3.33;;
17193;SDS011;8713;48.388;10.928;2023-10-09T00:55:23;8.63;;;3.25;;
17193;SDS011;8713;48.388;10.928;2023-10-09T00:56:54;9.23;;;3.50;;
17193;SDS011;8713;48.388;10.928;2023-10-09T00:58:07;7.57;;;3.50;;
17193;SDS011;8713;48.388;10.928;2023-10-09T00:59:21;8.63;;;3.70;;
17193;SDS011;8713;48.388;10.928;2023-10-09T01:00:31;9.68;;;3.35;;
17193;SDS011;8713;48.388;10.928;2023-10-09T01:01:41;11.68;;;3.45;;
17193;SDS011;8713;48.388;10.928;2023-10-09T01:03:01;8.20;;;3.10;;
17193;SDS011;8713;48.388;10.928;2023-10-09T01:04:26;9.35;;;3.58;;
17193;SDS011;8713;48.388;10.928;2023-10-09T01:05:37;8.55;;;3.25;;
17193;SDS011;8713;48.388;10.928;2023-10-09T01:06:47;9.05;;;3.58;;
17193;SDS011;8713;48.388;10.928;2023-10-09T01:08:13;10.50;;;3.92;;
17193;SDS011;8713;48.388;10.928;2023-10-09T01:09:25;12.93;;;4.00;;
17193;SDS011;8713;48.388;10.928;2023-10-09T01:10:44;11.45;;;3.78;;
17193;SDS011;8713;48.388;10.928;2023-10-09T01:12:00;10.88;;;3.78;;
17193;SDS011;8713;48.388;10.928;2023-10-09T01:13:09;10.40;;;3.80;;
17193;SDS011;8713;48.388;10.928;2023-10-09T01:14:18;12.45;;;3.78;;
17193;SDS011;8713;48.388;10.928;2023-10-09T01:15:30;10.00;;;3.28;;
17193;SDS011;8713;48.388;10.928;2023-10-09T01:16:52;10.98;;;3.70;;
17193;SDS011;8713;48.388;10.928;2023-10-09T01:18:03;9.60;;;3.67;;
17193;SDS011;8713;48.388;10.928;2023-10-09T01:19:15;12.00;;;3.83;;
17193;SDS011;8713;48.388;10.928;2023-10-09T01:20:32;10.43;;;3.45;;
17193;SDS011;8713;48.388;10.928;2023-10-09T01:21:50;13.35;;;3.60;;
17193;SDS011;8713;48.388;10.928;2023-10-09T01:23:03;12.73;;;3.58;;
17193;SDS011;8713;48.388;10.928;2023-10-09T01:24:12;9.63;;;3.65;;
17193;SDS011;8713;48.388;10.928;2023-10-09T01:25:24;10.30;;;3.80;;
17193;SDS011;8713;48.388;10.928;2023-10-09T01:26:37;11.63;;;3.90;;
17193;SDS011;8713;48.388;10.928;2023-10-09T01:27:48;12.13;;;3.33;;
17193;SDS011;8713;48.388;10.928;2023-10-09T01:28:58;8.30;;;3.38;;
17193;SDS011;8713;48.388;10.928;2023-10-09T01:30:09;8.20;;;3.55;;
17193;SDS011;8713;48.388;10.928;2023-10-09T01:31:23;9.15;;;3.50;;
17193;SDS011;8713;48.388;10.928;2023-10-09T01:32:35;10.15;;;3.85;;
17193;SDS011;8713;48.388;10.928;2023-10-09T01:33:45;11.60;;;3.53;;
17193;SDS011;8713;48.388;10.928;2023-10-09T01:34:57;6.88;;;3.08;;
17193;SDS011;8713;48.388;10.928;2023-10-09T01:36:07;8.88;;;3.55;;
17193;SDS011;8713;48.388;10.928;2023-10-09T01:37:19;10.23;;;3.53;;
17193;SDS011;8713;48.388;10.928;2023-10-09T01:38:31;14.85;;;3.75;;
17193;SDS011;8713;48.388;10.928;2023-10-09T01:39:50;10.45;;;3.38;;
17193;SDS011;8713;48.388;10.928;2023-10-09T01:41:01;12.25;;;3.28;;
17193;SDS011;8713;48.388;10.928;2023-10-09T01:42:17;8.75;;;3.28;;
17193;SDS011;8713;48.388;10.928;2023-10-09T01:43:34;6.93;;;3.10;;
17193;SDS011;8713;48.388;10.928;2023-10-09T01:44:45;8.38;;;3.60;;
17193;SDS011;8713;48.388;10.928;2023-10-09T01:45:57;8.68;;;3.25;;
17193;SDS011;8713;48.388;10.928;2023-10-09T01:47:11;11.18;;;3.22;;
17193;SDS011;8713;48.388;10.928;2023-10-09T01:48:23;10.65;;;3.45;;
17193;SDS011;8713;48.388;10.928;2023-10-09T01:49:33;8.55;;;3.65;;
17193;SDS011;8713;48.388;10.928;2023-10-09T01:50:46;7.90;;;3.30;;
17193;SDS011;8713;48.388;10.928;2023-10-09T01:51:57;9.65;;;3.45;;
17193;SDS011;8713;48.388;10.928;2023-10-09T01:53:10;6.80;;;3.33;;
17193;SDS011;8713;48.388;10.928;2023-10-09T01:54:26;10.60;;;3.22;;
17193;SDS011;8713;48.388;10.928;2023-10-09T01:55:50;10.30;;;3.40;;
17193;SDS011;8713;48.388;10.928;2023-10-09T01:57:05;10.57;;;3.47;;
17193;SDS011;8713;48.388;10.928;2023-10-09T01:58:22;8.25;;;3.35;;
17193;SDS011;8713;48.388;10.928;2023-10-09T01:59:32;6.43;;;3.03;;
17193;SDS011;8713;48.388;10.928;2023-10-09T02:00:42;12.68;;;3.33;;
17193;SDS011;8713;48.388;10.928;2023-10-09T02:02:06;7.45;;;3.10;;
17193;SDS011;8713;48.388;10.928;2023-10-09T02:03:35;8.02;;;3.35;;
17193;SDS011;8713;48.388;10.928;2023-10-09T02:04:52;9.05;;;3.15;;
17193;SDS011;8713;48.388;10.928;2023-10-09T02:06:06;7.75;;;3.40;;
17193;SDS011;8713;48.388;10.928;2023-10-09T02:07:33;9.38;;;3.25;;
17193;SDS011;8713;48.388;10.928;2023-10-09T02:08:54;7.45;;;3.08;;
17193;SDS011;8713;48.388;10.928;2023-10-09T02:10:05;10.40;;;3.60;;
17193;SDS011;8713;48.388;10.928;2023-10-09T02:11:22;7.25;;;2.95;;
17193;SDS011;8713;48.388;10.928;2023-10-09T02:12:53;7.63;;;2.97;;
17193;SDS011;8713;48.388;10.928;2023-10-09T02:14:07;8.07;;;2.72;;
17193;SDS011;8713;48.388;10.928;2023-10-09T02:15:36;11.18;;;3.92;;
17193;SDS011;8713;48.388;10.928;2023-10-09T02:16:53;8.70;;;3.30;;
17193;SDS011;8713;48.388;10.928;2023-10-09T02:18:16;10.00;;;3.28;;
17193;SDS011;8713;48.388;10.928;2023-10-09T02:19:33;9.18;;;3.30;;
17193;SDS011;8713;48.388;10.928;2023-10-09T02:20:44;9.00;;;3.17;;
17193;SDS011;8713;48.388;10.928;2023-10-09T02:21:55;9.75;;;3.47;;
17193;SDS011;8713;48.388;10.928;2023-10-09T02:23:06;9.07;;;3.67;;
17193;SDS011;8713;48.388;10.928;2023-10-09T02:24:23;10.35;;;3.60;;
17193;SDS011;8713;48.388;10.928;2023-10-09T02:25:57;6.63;;;3.10;;
17193;SDS011;8713;48.388;10.928;2023-10-09T02:27:10;7.65;;;2.92;;
17193;SDS011;8713;48.388;10.928;2023-10-09T02:28:20;13.98;;;3.45;;
17193;SDS011;8713;48.388;10.928;2023-10-09T02:29:30;12.68;;;3.72;;
17193;SDS011;8713;48.388;10.928;2023-10-09T02:30:44;11.00;;;3.65;;
17193;SDS011;8713;48.388;10.928;2023-10-09T02:31:57;8.95;;;3.13;;
17193;SDS011;8713;48.388;10.928;2023-10-09T02:33:24;8.30;;;3.15;;
17193;SDS011;8713;48.388;10.928;2023-10-09T02:34:36;9.35;;;3.35;;
17193;SDS011;8713;48.388;10.928;2023-10-09T02:35:47;9.55;;;3.40;;
17193;SDS011;8713;48.388;10.928;2023-10-09T02:37:00;9.82;;;3.30;;
17193;SDS011;8713;48.388;10.928;2023-10-09T02:38:15;7.70;;;2.72;;
17193;SDS011;8713;48.388;10.928;2023-10-09T02:39:26;7.28;;;3.13;;
17193;SDS011;8713;48.388;10.928;2023-10-09T02:40:35;8.20;;;3.20;;
17193;SDS011;8713;48.388;10.928;2023-10-09T02:42:03;8.15;;;2.83;;
17193;SDS011;8713;48.388;10.928;2023-10-09T02:43:31;7.97;;;3.10;;
17193;SDS011;8713;48.388;10.928;2023-10-09T02:44:56;6.78;;;2.90;;
17193;SDS011;8713;48.388;10.928;2023-10-09T02:46:08;14.82;;;3.47;;
17193;SDS011;8713;48.388;10.928;2023-10-09T02:47:24;10.65;;;3.40;;
17193;SDS011;8713;48.388;10.928;2023-10-09T02:48:34;12.10;;;3.33;;
17193;SDS011;8713;48.388;10.928;2023-10-09T02:49:46;9.88;;;3.33;;
17193;SDS011;8713;48.388;10.928;2023-10-09T02:51:00;8.27;;;2.90;;
17193;SDS011;8713;48.388;10.928;2023-10-09T02:52:11;12.68;;;3.45;;
17193;SDS011;8713;48.388;10.928;2023-10-09T02:53:29;12.50;;;3.28;;
17193;SDS011;8713;48.388;10.928;2023-10-09T02:54:45;6.55;;;3.13;;
17193;SDS011;8713;48.388;10.928;2023-10-09T02:56:01;9.85;;;3.38;;
17193;SDS011;8713;48.388;10.928;2023-10-09T02:57:21;10.75;;;3.17;;
17193;SDS011;8713;48.388;10.928;2023-10-09T02:58:32;10.15;;;3.50;;
17193;SDS011;8713;48.388;10.928;2023-10-09T02:59:45;10.05;;;3.20;;
17193;SDS011;8713;48.388;10.928;2023-10-09T03:00:56;7.10;;;3.20;;
17193;SDS011;8713;48.388;10.928;2023-10-09T03:02:07;10.57;;;3.13;;
17193;SDS011;8713;48.388;10.928;2023-10-09T03:03:17;10.98;;;3.35;;
17193;SDS011;8713;48.388;10.928;2023-10-09T03:04:28;13.98;;;3.70;;
17193;SDS011;8713;48.388;10.928;2023-10-09T03:05:40;8.25;;;3.03;;
17193;SDS011;8713;48.388;10.928;2023-10-09T03:06:51;8.43;;;2.63;;
17193;SDS011;8713;48.388;10.928;2023-10-09T03:08:02;10.90;;;3.28;;
17193;SDS011;8713;48.388;10.928;2023-10-09T03:09:12;7.78;;;3.03;;
17193;SDS011;8713;48.388;10.928;2023-10-09T03:10:28;9.63;;;3.03;;
17193;SDS011;8713;48.388;10.928;2023-10-09T03:11:38;8.50;;;3.17;;
17193;SDS011;8713;48.388;10.928;2023-10-09T03:12:49;13.35;;;3.58;;
17193;SDS011;8713;48.388;10.928;2023-10-09T03:14:02;10.40;;;3.55;;
17193;SDS011;8713;48.388;10.928;2023-10-09T03:15:13;7.95;;;3.15;;
17193;SDS011;8713;48.388;10.928;2023-10-09T03:16:22;9.38;;;3.17;;
17193;SDS011;8713;48.388;10.928;2023-10-09T03:17:32;8.27;;;3.72;;
17193;SDS011;8713;48.388;10.928;2023-10-09T03:18:43;16.02;;;3.60;;
17193;SDS011;8713;48.388;10.928;2023-10-09T03:19:53;13.48;;;3.35;;
17193;SDS011;8713;48.388;10.928;2023-10-09T03:21:04;7.13;;;2.92;;
17193;SDS011;8713;48.388;10.928;2023-10-09T03:22:13;13.77;;;3.40;;
17193;SDS011;8713;48.388;10.928;2023-10-09T03:23:23;12.80;;;3.22;;
17193;SDS011;8713;48.388;10.928;2023-10-09T03:24:32;10.02;;;3.00;;
17193;SDS011;8713;48.388;10.928;2023-10-09T03:25:43;10.95;;;3.47;;
17193;SDS011;8713;48.388;10.928;2023-10-09T03:26:54;11.70;;;3.05;;
17193;SDS011;8713;48.388;10.928;2023-10-09T03:28:07;8.15;;;2.88;;
17193;SDS011;8713;48.388;10.928;2023-10-09T03:29:17;8.90;;;3.17;;
17193;SDS011;8713;48.388;10.928;2023-10-09T03:30:28;9.57;;;3.05;;
17193;SDS011;8713;48.388;10.928;2023-10-09T03:31:41;8.50;;;3.25;;
17193;SDS011;8713;48.388;10.928;2023-10-09T03:32:52;7.35;;;3.47;;
17193;SDS011;8713;48.388;10.928;2023-10-09T03:34:03;9.30;;;3.03;;
17193;SDS011;8713;48.388;10.928;2023-10-09T03:35:13;10.77;;;3.15;;
17193;SDS011;8713;48.388;10.928;2023-10-09T03:36:27;9.65;;;3.10;;
17193;SDS011;8713;48.388;10.928;2023-10-09T03:37:38;9.18;;;3.08;;
17193;SDS011;8713;48.388;10.928;2023-10-09T03:38:48;9.15;;;2.70;;
17193;SDS011;8713;48.388;10.928;2023-10-09T03:39:58;9.13;;;2.95;;
17193;SDS011;8713;48.388;10.928;2023-10-09T03:41:07;12.88;;;3.13;;
17193;SDS011;8713;48.388;10.928;2023-10-09T03:42:21;12.52;;;3.17;;
17193;SDS011;8713;48.388;10.928;2023-10-09T03:43:37;10.50;;;2.65;;
17193;SDS011;8713;48.388;10.928;2023-10-09T03:44:50;8.80;;;3.17;;
17193;SDS011;8713;48.388;10.928;2023-10-09T03:46:02;8.02;;;2.85;;
17193;SDS011;8713;48.388;10.928;2023-10-09T03:47:14;8.95;;;2.83;;
17193;SDS011;8713;48.388;10.928;2023-10-09T03:48:25;10.50;;;3.13;;
17193;SDS011;8713;48.388;10.928;2023-10-09T03:49:40;8.65;;;2.90;;
17193;SDS011;8713;48.388;10.928;2023-10-09T03:50:50;12.20;;;3.28;;
17193;SDS011;8713;48.388;10.928;2023-10-09T03:52:17;11.13;;;3.05;;
17193;SDS011;8713;48.388;10.928;2023-10-09T03:53:27;9.23;;;3.17;;
17193;SDS011;8713;48.388;10.928;2023-10-09T03:54:38;7.65;;;2.95;;
17193;SDS011;8713;48.388;10.928;2023-10-09T03:55:48;8.57;;;3.72;;
17193;SDS011;8713;48.388;10.928;2023-10-09T03:57:02;11.55;;;4.53;;
17193;SDS011;8713;48.388;10.928;2023-10-09T03:58:11;15.75;;;5.97;;
17193;SDS011;8713;48.388;10.928;2023-10-09T03:59:21;9.00;;;5.05;;
17193;SDS011;8713;48.388;10.928;2023-10-09T04:00:31;9.60;;;4.40;;
17193;SDS011;8713;48.388;10.928;2023-10-09T04:01:44;9.70;;;5.10;;
17193;SDS011;8713;48.388;10.928;2023-10-09T04:02:55;11.68;;;6.20;;
17193;SDS011;8713;48.388;10.928;2023-10-09T04:04:06;17.00;;;5.75;;
17193;SDS011;8713;48.388;10.928;2023-10-09T04:05:19;12.23;;;4.70;;
17193;SDS011;8713;48.388;10.928;2023-10-09T04:06:30;12.07;;;4.65;;
17193;SDS011;8713;48.388;10.928;2023-10-09T04:07:41;10.20;;;3.65;;
17193;SDS011;8713;48.388;10.928;2023-10-09T04:08:51;11.18;;;3.30;;
17193;SDS011;8713;48.388;10.928;2023-10-09T04:10:00;9.85;;;3.05;;
17193;SDS011;8713;48.388;10.928;2023-10-09T04:11:33;10.27;;;3.25;;
17193;SDS011;8713;48.388;10.928;2023-10-09T04:12:42;10.77;;;3.33;;
17193;SDS011;8713;48.388;10.928;2023-10-09T04:13:52;16.58;;;3.63;;
17193;SDS011;8713;48.388;10.928;2023-10-09T04:15:02;10.50;;;3.55;;
17193;SDS011;8713;48.388;10.928;2023-10-09T04:16:14;13.48;;;3.60;;
17193;SDS011;8713;48.388;10.928;2023-10-09T04:17:40;10.68;;;3.20;;
17193;SDS011;8713;48.388;10.928;2023-10-09T04:18:52;12.48;;;3.45;;
17193;SDS011;8713;48.388;10.928;2023-10-09T04:20:02;10.07;;;3.13;;
17193;SDS011;8713;48.388;10.928;2023-10-09T04:21:28;12.55;;;3.53;;
17193;SDS011;8713;48.388;10.928;2023-10-09T04:22:46;8.15;;;3.42;;
17193;SDS011;8713;48.388;10.928;2023-10-09T04:24:14;12.38;;;3.60;;
17193;SDS011;8713;48.388;10.928;2023-10-09T04:25:24;7.57;;;2.95;;
17193;SDS011;8713;48.388;10.928;2023-10-09T04:26:41;12.18;;;3.53;;
17193;SDS011;8713;48.388;10.928;2023-10-09T04:27:56;8.75;;;3.15;;
17193;SDS011;8713;48.388;10.928;2023-10-09T04:29:19;9.60;;;3.00;;
17193;SDS011;8713;48.388;10.928;2023-10-09T04:30:40;10.48;;;3.55;;
17193;SDS011;8713;48.388;10.928;2023-10-09T04:31:56;6.82;;;2.83;;
17193;SDS011;8713;48.388;10.928;2023-10-09T04:33:11;9.82;;;3.20;;
17193;SDS011;8713;48.388;10.928;2023-10-09T04:34:42;11.00;;;3.13;;
17193;SDS011;8713;48.388;10.928;2023-10-09T04:36:01;11.25;;;3.20;;
17193;SDS011;8713;48.388;10.928;2023-10-09T04:37:30;9.50;;;3.20;;
17193;SDS011;8713;48.388;10.928;2023-10-09T04:38:46;13.93;;;3.47;;
17193;SDS011;8713;48.388;10.928;2023-10-09T04:40:12;9.63;;;3.03;;
17193;SDS011;8713;48.388;10.928;2023-10-09T04:41:42;15.27;;;3.47;;
17193;SDS011;8713;48.388;10.928;2023-10-09T04:42:52;11.48;;;3.38;;
17193;SDS011;8713;48.388;10.928;2023-10-09T04:44:08;10.68;;;3.53;;
17193;SDS011;8713;48.388;10.928;2023-10-09T04:45:38;8.68;;;3.20;;
17193;SDS011;8713;48.388;10.928;2023-10-09T04:47:06;12.05;;;3.45;;
17193;SDS011;8713;48.388;10.928;2023-10-09T04:48:19;10.02;;;3.10;;
17193;SDS011;8713;48.388;10.928;2023-10-09T04:49:41;9.05;;;3.13;;
17193;SDS011;8713;48.388;10.928;2023-10-09T04:50:56;12.77;;;3.30;;
17193;SDS011;8713;48.388;10.928;2023-10-09T04:52:27;9.23;;;3.40;;
17193;SDS011;8713;48.388;10.928;2023-10-09T04:53:37;8.65;;;3.35;;
17193;SDS011;8713;48.388;10.928;2023-10-09T04:54:57;10.82;;;3.25;;
17193;SDS011;8713;48.388;10.928;2023-10-09T04:56:16;9.55;;;3.25;;
17193;SDS011;8713;48.388;10.928;2023-10-09T04:57:26;12.63;;;3.22;;
17193;SDS011;8713;48.388;10.928;2023-10-09T04:58:37;8.90;;;3.20;;
17193;SDS011;8713;48.388;10.928;2023-10-09T04:59:48;12.55;;;3.40;;
17193;SDS011;8713;48.388;10.928;2023-10-09T05:00:58;11.32;;;3.60;;
17193;SDS011;8713;48.388;10.928;2023-10-09T05:02:07;11.63;;;3.72;;
17193;SDS011;8713;48.388;10.928;2023-10-09T05:03:27;10.18;;;2.97;;
17193;SDS011;8713;48.388;10.928;2023-10-09T05:04:38;10.73;;;3.20;;
17193;SDS011;8713;48.388;10.928;2023-10-09T05:05:47;12.50;;;3.55;;
17193;SDS011;8713;48.388;10.928;2023-10-09T05:07:07;11.90;;;3.38;;
17193;SDS011;8713;48.388;10.928;2023-10-09T05:08:32;8.32;;;3.17;;
17193;SDS011;8713;48.388;10.928;2023-10-09T05:09:42;10.52;;;3.45;;
17193;SDS011;8713;48.388;10.928;2023-10-09T05:11:04;13.43;;;3.97;;
17193;SDS011;8713;48.388;10.928;2023-10-09T05:12:24;7.45;;;3.22;;
17193;SDS011;8713;48.388;10.928;2023-10-09T05:13:38;10.80;;;3.75;;
17193;SDS011;8713;48.388;10.928;2023-10-09T05:14:51;8.95;;;3.40;;
17193;SDS011;8713;48.388;10.928;2023-10-09T05:16:18;12.70;;;3.38;;
17193;SDS011;8713;48.388;10.928;2023-10-09T05:17:28;10.82;;;3.28;;
17193;SDS011;8713;48.388;10.928;2023-10-09T05:18:38;12.20;;;3.40;;
17193;SDS011;8713;48.388;10.928;2023-10-09T05:19:48;11.93;;;3.70;;
17193;SDS011;8713;48.388;10.928;2023-10-09T05:21:12;9.68;;;3.35;;
17193;SDS011;8713;48.388;10.928;2023-10-09T05:22:22;14.00;;;3.50;;
17193;SDS011;8713;48.388;10.928;2023-10-09T05:23:46;11.80;;;3.65;;
17193;SDS011;8713;48.388;10.928;2023-10-09T05:25:18;10.65;;;3.53;;
17193;SDS011;8713;48.388;10.928;2023-10-09T05:26:48;10.73;;;3.35;;
17193;SDS011;8713;48.388;10.928;2023-10-09T05:27:59;8.37;;;3.67;;
17193;SDS011;8713;48.388;10.928;2023-10-09T05:29:28;13.57;;;3.78;;
17193;SDS011;8713;48.388;10.928;2023-10-09T05:30:41;12.32;;;3.60;;
17193;SDS011;8713;48.388;10.928;2023-10-09T05:31:51;23.40;;;4.53;;
17193;SDS011;8713;48.388;10.928;2023-10-09T05:33:17;18.95;;;4.53;;
17193;SDS011;8713;48.388;10.928;2023-10-09T05:34:39;20.65;;;4.97;;
17193;SDS011;8713;48.388;10.928;2023-10-09T05:36:07;16.67;;;3.92;;
17193;SDS011;8713;48.388;10.928;2023-10-09T05:37:40;12.45;;;4.03;;
17193;SDS011;8713;48.388;10.928;2023-10-09T05:38:52;16.52;;;4.20;;
17193;SDS011;8713;48.388;10.928;2023-10-09T05:40:07;13.75;;;4.10;;
17193;SDS011;8713;48.388;10.928;2023-10-09T05:41:31;19.20;;;4.55;;
17193;SDS011;8713;48.388;10.928;2023-10-09T05:42:56;17.98;;;4.13;;
17193;SDS011;8713;48.388;10.928;2023-10-09T05:44:11;16.70;;;4.30;;
17193;SDS011;8713;48.388;10.928;2023-10-09T05:45:39;13.70;;;4.10;;
17193;SDS011;8713;48.388;10.928;2023-10-09T05:47:07;20.08;;;4.40;;
17193;SDS011;8713;48.388;10.928;2023-10-09T05:48:40;13.70;;;4.32;;
17193;SDS011;8713;48.388;10.928;2023-10-09T05:49:49;17.00;;;4.03;;
17193;SDS011;8713;48.388;10.928;2023-10-09T05:51:17;14.23;;;3.88;;
17193;SDS011;8713;48.388;10.928;2023-10-09T05:52:45;10.45;;;3.80;;
17193;SDS011;8713;48.388;10.928;2023-10-09T05:54:00;12.18;;;3.50;;
17193;SDS011;8713;48.388;10.928;2023-10-09T05:55:41;15.40;;;4.28;;
17193;SDS011;8713;48.388;10.928;2023-10-09T05:57:09;11.25;;;3.47;;
17193;SDS011;8713;48.388;10.928;2023-10-09T05:58:38;8.90;;;3.05;;
17193;SDS011;8713;48.388;10.928;2023-10-09T06:00:06;12.05;;;3.58;;
17193;SDS011;8713;48.388;10.928;2023-10-09T06:01:39;7.85;;;3.00;;
17193;SDS011;8713;48.388;10.928;2023-10-09T06:03:07;12.55;;;3.65;;
17193;SDS011;8713;48.388;10.928;2023-10-09T06:04:32;11.23;;;3.30;;
17193;SDS011;8713;48.388;10.928;2023-10-09T06:06:02;9.95;;;3.08;;
17193;SDS011;8713;48.388;10.928;2023-10-09T06:07:13;13.80;;;4.15;;
17193;SDS011;8713;48.388;10.928;2023-10-09T06:08:23;15.55;;;5.32;;
17193;SDS011;8713;48.388;10.928;2023-10-09T06:09:36;20.20;;;5.47;;
17193;SDS011;8713;48.388;10.928;2023-10-09T06:11:04;22.00;;;5.70;;
17193;SDS011;8713;48.388;10.928;2023-10-09T06:12:34;15.82;;;5.60;;
17193;SDS011;8713;48.388;10.928;2023-10-09T06:14:09;16.65;;;5.40;;
17193;SDS011;8713;48.388;10.928;2023-10-09T06:15:19;10.70;;;4.72;;
17193;SDS011;8713;48.388;10.928;2023-10-09T06:16:59;14.85;;;4.43;;
17193;SDS011;8713;48.388;10.928;2023-10-09T06:18:09;13.80;;;4.80;;
17193;SDS011;8713;48.388;10.928;2023-10-09T06:19:41;17.58;;;4.53;;
17193;SDS011;8713;48.388;10.928;2023-10-09T06:20:53;14.55;;;4.70;;
17193;SDS011;8713;48.388;10.928;2023-10-09T06:22:21;12.50;;;4.60;;
17193;SDS011;8713;48.388;10.928;2023-10-09T06:23:49;12.73;;;3.85;;
17193;SDS011;8713;48.388;10.928;2023-10-09T06:25:06;13.75;;;3.72;;
17193;SDS011;8713;48.388;10.928;2023-10-09T06:26:20;13.90;;;4.10;;
17193;SDS011;8713;48.388;10.928;2023-10-09T06:27:35;14.13;;;4.18;;
17193;SDS011;8713;48.388;10.928;2023-10-09T06:28:44;12.30;;;4.00;;
17193;SDS011;8713;48.388;10.928;2023-10-09T06:30:13;16.15;;;3.88;;
17193;SDS011;8713;48.388;10.928;2023-10-09T06:31:23;14.77;;;3.90;;
17193;SDS011;8713;48.388;10.928;2023-10-09T06:32:38;16.98;;;3.90;;
17193;SDS011;8713;48.388;10.928;2023-10-09T06:33:59;10.07;;;3.33;;
17193;SDS011;8713;48.388;10.928;2023-10-09T06:35:24;9.70;;;3.22;;
17193;SDS011;8713;48.388;10.928;2023-10-09T06:36:42;15.85;;;3.70;;
17193;SDS011;8713;48.388;10.928;2023-10-09T06:38:01;9.55;;;2.90;;
17193;SDS011;8713;48.388;10.928;2023-10-09T06:39:11;10.27;;;2.83;;
17193;SDS011;8713;48.388;10.928;2023-10-09T06:40:55;11.18;;;2.72;;
17193;SDS011;8713;48.388;10.928;2023-10-09T06:42:30;18.98;;;2.58;;
17193;SDS011;8713;48.388;10.928;2023-10-09T06:43:42;11.40;;;2.83;;
17193;SDS011;8713;48.388;10.928;2023-10-09T06:44:51;11.43;;;2.90;;
17193;SDS011;8713;48.388;10.928;2023-10-09T06:46:01;11.10;;;2.55;;
17193;SDS011;8713;48.388;10.928;2023-10-09T06:47:48;11.50;;;3.05;;
17193;SDS011;8713;48.388;10.928;2023-10-09T06:49:04;9.82;;;2.55;;
17193;SDS011;8713;48.388;10.928;2023-10-09T06:50:34;8.70;;;2.60;;
17193;SDS011;8713;48.388;10.928;2023-10-09T06:52:03;10.98;;;2.60;;
17193;SDS011;8713;48.388;10.928;2023-10-09T06:53:23;11.98;;;2.85;;
17193;SDS011;8713;48.388;10.928;2023-10-09T06:54:58;13.52;;;2.60;;
17193;SDS011;8713;48.388;10.928;2023-10-09T06:56:17;6.75;;;1.85;;
17193;SDS011;8713;48.388;10.928;2023-10-09T06:57:33;10.43;;;2.50;;
17193;SDS011;8713;48.388;10.928;2023-10-09T06:58:52;6.47;;;2.15;;
17193;SDS011;8713;48.388;10.928;2023-10-09T07:00:06;12.82;;;2.70;;
17193;SDS011;8713;48.388;10.928;2023-10-09T07:01:39;12.23;;;2.22;;
17193;SDS011;8713;48.388;10.928;2023-10-09T07:02:51;11.98;;;2.83;;
17193;SDS011;8713;48.388;10.928;2023-10-09T07:04:02;8.20;;;2.25;;
17193;SDS011;8713;48.388;10.928;2023-10-09T07:05:29;10.52;;;2.28;;
17193;SDS011;8713;48.388;10.928;2023-10-09T07:06:57;8.63;;;2.22;;
17193;SDS011;8713;48.388;10.928;2023-10-09T07:08:07;15.27;;;2.75;;
17193;SDS011;8713;48.388;10.928;2023-10-09T07:09:37;10.40;;;2.05;;
17193;SDS011;8713;48.388;10.928;2023-10-09T07:10:52;12.98;;;2.67;;
17193;SDS011;8713;48.388;10.928;2023-10-09T07:12:22;7.25;;;2.25;;
17193;SDS011;8713;48.388;10.928;2023-10-09T07:13:36;13.60;;;2.67;;
17193;SDS011;8713;48.388;10.928;2023-10-09T07:14:46;10.05;;;2.22;;
17193;SDS011;8713;48.388;10.928;2023-10-09T07:15:55;15.88;;;2.35;;
17193;SDS011;8713;48.388;10.928;2023-10-09T07:17:28;8.00;;;2.20;;
17193;SDS011;8713;48.388;10.928;2023-10-09T07:18:58;12.00;;;1.98;;
17193;SDS011;8713;48.388;10.928;2023-10-09T07:20:18;14.60;;;2.42;;
17193;SDS011;8713;48.388;10.928;2023-10-09T07:21:46;10.75;;;2.25;;
17193;SDS011;8713;48.388;10.928;2023-10-09T07:23:03;9.00;;;2.13;;
17193;SDS011;8713;48.388;10.928;2023-10-09T07:24:26;9.10;;;2.17;;
17193;SDS011;8713;48.388;10.928;2023-10-09T07:25:46;10.82;;;2.42;;
17193;SDS011;8713;48.388;10.928;2023-10-09T07:27:04;13.90;;;2.55;;
17193;SDS011;8713;48.388;10.928;2023-10-09T07:28:19;11.80;;;2.13;;
17193;SDS011;8713;48.388;10.928;2023-10-09T07:29:38;14.90;;;2.65;;
17193;SDS011;8713;48.388;10.928;2023-10-09T07:30:57;9.38;;;2.40;;
17193;SDS011;8713;48.388;10.928;2023-10-09T07:32:07;10.73;;;2.17;;
17193;SDS011;8713;48.388;10.928;2023-10-09T07:33:21;10.05;;;2.25;;
17193;SDS011;8713;48.388;10.928;2023-10-09T07:34:39;8.52;;;1.92;;
17193;SDS011;8713;48.388;10.928;2023-10-09T07:36:08;10.82;;;2.33;;
17193;SDS011;8713;48.388;10.928;2023-10-09T07:37:22;7.85;;;2.10;;
17193;SDS011;8713;48.388;10.928;2023-10-09T07:38:32;8.98;;;2.20;;
17193;SDS011;8713;48.388;10.928;2023-10-09T07:39:44;7.72;;;1.88;;